sensor_id;sensor_type;location;lat;lon;timestamp;pressure;altitude;pressure_sealevel;temperature;humidity
16613;BME280;8419;52.358;9.752;2023-05-01T00:01:47;101306.00;;;18.23;26.34
16613;BME280;8419;52.358;9.752;2023-05-01T00:04:33;101306.00;;;18.06;26.55
16613;BME280;8419;52.358;9.752;2023-05-01T00:07:19;101310.00;;;18.23;26.36
16613;BME280;8419;52.358;9.752;2023-05-01T00:10:07;101307.00;;;18.21;26.37
16613;BME280;8419;52.358;9.752;2023-05-01T00:12:53;101308.00;;;18.18;26.47
16613;BME280;8419;52.358;9.752;2023-05-01T00:15:40;101300.00;;;17.99;26.73
16613;BME280;8419;52.358;9.752;2023-05-01T00:18:29;101299.00;;;18.09;26.66
16613;BME280;8419;52.358;9.752;2023-05-01T00:21:15;101291.00;;;18.14;26.61
16613;BME280;8419;52.358;9.752;2023-05-01T00:24:01;101297.00;;;18.14;26.58
16613;BME280;8419;52.358;9.752;2023-05-01T00:26:46;101299.00;;;18.09;26.68
16613;BME280;8419;52.358;9.752;2023-05-01T00:29:32;101289.00;;;18.10;26.70
16613;BME280;8419;52.358;9.752;2023-05-01T00:32:17;101283.00;;;18.06;26.77
16613;BME280;8419;52.358;9.752;2023-05-01T00:35:04;101283.00;;;18.05;26.80
16613;BME280;8419;52.358;9.752;2023-05-01T00:37:49;101287.00;;;18.02;26.89
16613;BME280;8419;52.358;9.752;2023-05-01T00:40:41;101272.00;;;17.98;26.94
16613;BME280;8419;52.358;9.752;2023-05-01T00:43:27;101272.00;;;17.95;27.05
16613;BME280;8419;52.358;9.752;2023-05-01T00:46:12;101266.00;;;17.87;27.12
16613;BME280;8419;52.358;9.752;2023-05-01T00:48:58;101267.00;;;17.83;27.19
16613;BME280;8419;52.358;9.752;2023-05-01T00:51:45;101260.00;;;17.82;27.22
16613;BME280;8419;52.358;9.752;2023-05-01T00:54:33;101263.00;;;17.82;27.30
16613;BME280;8419;52.358;9.752;2023-05-01T00:57:20;101263.00;;;17.75;27.32
16613;BME280;8419;52.358;9.752;2023-05-01T01:00:08;101259.00;;;17.75;27.38
16613;BME280;8419;52.358;9.752;2023-05-01T01:02:55;101262.00;;;17.70;27.44
16613;BME280;8419;52.358;9.752;2023-05-01T01:05:43;101260.00;;;17.72;27.44
16613;BME280;8419;52.358;9.752;2023-05-01T01:08:36;101256.00;;;17.71;27.50
16613;BME280;8419;52.358;9.752;2023-05-01T01:11:29;101253.00;;;17.71;27.55
16613;BME280;8419;52.358;9.752;2023-05-01T01:14:23;101256.00;;;17.68;27.60
16613;BME280;8419;52.358;9.752;2023-05-01T01:17:18;101254.00;;;17.64;27.70
16613;BME280;8419;52.358;9.752;2023-05-01T01:20:22;101248.00;;;17.60;27.76
16613;BME280;8419;52.358;9.752;2023-05-01T01:30:51;101236.00;;;17.53;27.74
16613;BME280;8419;52.358;9.752;2023-05-01T01:37:20;101230.00;;;17.59;28.02
16613;BME280;8419;52.358;9.752;2023-05-01T01:40:11;101229.00;;;17.49;28.10
16613;BME280;8419;52.358;9.752;2023-05-01T01:43:02;101226.00;;;17.46;28.14
16613;BME280;8419;52.358;9.752;2023-05-01T01:45:59;101224.00;;;17.41;28.21
16613;BME280;8419;52.358;9.752;2023-05-01T01:48:48;101222.00;;;17.35;28.32
16613;BME280;8419;52.358;9.752;2023-05-01T01:51:35;101218.00;;;17.38;28.24
16613;BME280;8419;52.358;9.752;2023-05-01T01:54:31;101206.00;;;17.35;28.27
16613;BME280;8419;52.358;9.752;2023-05-01T01:57:20;101203.00;;;17.35;28.36
16613;BME280;8419;52.358;9.752;2023-05-01T02:00:11;101196.00;;;17.12;28.67
16613;BME280;8419;52.358;9.752;2023-05-01T02:02:58;101197.00;;;17.08;28.74
16613;BME280;8419;52.358;9.752;2023-05-01T02:05:45;101196.00;;;17.09;28.76
16613;BME280;8419;52.358;9.752;2023-05-01T02:08:33;101193.00;;;17.04;28.81
16613;BME280;8419;52.358;9.752;2023-05-01T02:11:21;101195.00;;;17.02;28.87
16613;BME280;8419;52.358;9.752;2023-05-01T02:14:10;101193.00;;;17.00;28.90
16613;BME280;8419;52.358;9.752;2023-05-01T02:16:57;101188.00;;;17.07;28.88
16613;BME280;8419;52.358;9.752;2023-05-01T02:19:44;101186.00;;;17.01;28.89
16613;BME280;8419;52.358;9.752;2023-05-01T02:22:30;101178.00;;;16.99;28.95
16613;BME280;8419;52.358;9.752;2023-05-01T02:25:17;101177.00;;;16.99;28.94
16613;BME280;8419;52.358;9.752;2023-05-01T02:28:05;101169.00;;;16.93;29.02
16613;BME280;8419;52.358;9.752;2023-05-01T02:30:52;101163.00;;;16.91;29.06
16613;BME280;8419;52.358;9.752;2023-05-01T02:33:38;101161.00;;;16.90;29.07
16613;BME280;8419;52.358;9.752;2023-05-01T02:36:24;101159.00;;;16.98;29.02
16613;BME280;8419;52.358;9.752;2023-05-01T02:39:11;101145.00;;;16.88;29.14
16613;BME280;8419;52.358;9.752;2023-05-01T02:42:00;101145.00;;;16.90;29.14
16613;BME280;8419;52.358;9.752;2023-05-01T02:44:52;101139.00;;;16.85;29.27
16613;BME280;8419;52.358;9.752;2023-05-01T02:47:40;101128.00;;;16.81;29.29
16613;BME280;8419;52.358;9.752;2023-05-01T02:50:27;101134.00;;;16.77;29.38
16613;BME280;8419;52.358;9.752;2023-05-01T02:53:14;101127.00;;;16.70;29.46
16613;BME280;8419;52.358;9.752;2023-05-01T02:56:02;101125.00;;;16.46;29.81
16613;BME280;8419;52.358;9.752;2023-05-01T02:58:48;101129.00;;;16.40;29.92
16613;BME280;8419;52.358;9.752;2023-05-01T03:01:34;101132.00;;;16.40;29.90
16613;BME280;8419;52.358;9.752;2023-05-01T03:04:20;101124.00;;;16.36;29.95
16613;BME280;8419;52.358;9.752;2023-05-01T03:07:06;101122.00;;;16.32;30.02
16613;BME280;8419;52.358;9.752;2023-05-01T03:09:52;101125.00;;;16.36;29.96
16613;BME280;8419;52.358;9.752;2023-05-01T03:12:37;101117.00;;;16.38;29.97
16613;BME280;8419;52.358;9.752;2023-05-01T03:15:23;101129.00;;;16.37;29.99
16613;BME280;8419;52.358;9.752;2023-05-01T03:18:09;101126.00;;;16.35;30.01
16613;BME280;8419;52.358;9.752;2023-05-01T03:20:56;101130.00;;;16.32;30.08
16613;BME280;8419;52.358;9.752;2023-05-01T03:23:42;101123.00;;;16.18;30.26
16613;BME280;8419;52.358;9.752;2023-05-01T03:26:27;101119.00;;;16.11;30.40
16613;BME280;8419;52.358;9.752;2023-05-01T03:29:13;101113.00;;;16.07;30.43
16613;BME280;8419;52.358;9.752;2023-05-01T03:31:59;101108.00;;;16.08;30.46
16613;BME280;8419;52.358;9.752;2023-05-01T03:34:45;101104.00;;;16.05;30.50
16613;BME280;8419;52.358;9.752;2023-05-01T03:37:30;101106.00;;;16.06;30.52
16613;BME280;8419;52.358;9.752;2023-05-01T03:40:17;101099.00;;;16.05;30.54
16613;BME280;8419;52.358;9.752;2023-05-01T03:43:03;101091.00;;;16.04;30.56
16613;BME280;8419;52.358;9.752;2023-05-01T03:45:48;101094.00;;;16.04;30.62
16613;BME280;8419;52.358;9.752;2023-05-01T03:48:34;101091.00;;;16.04;30.62
16613;BME280;8419;52.358;9.752;2023-05-01T03:51:20;101083.00;;;16.00;30.69
16613;BME280;8419;52.358;9.752;2023-05-01T03:54:06;101083.00;;;16.04;30.66
16613;BME280;8419;52.358;9.752;2023-05-01T03:56:51;101080.00;;;16.08;30.60
16613;BME280;8419;52.358;9.752;2023-05-01T03:59:37;101075.00;;;16.04;30.68
16613;BME280;8419;52.358;9.752;2023-05-01T04:02:23;101079.00;;;16.03;30.75
16613;BME280;8419;52.358;9.752;2023-05-01T04:05:09;101075.00;;;16.04;30.76
16613;BME280;8419;52.358;9.752;2023-05-01T04:07:54;101072.00;;;16.02;30.79
16613;BME280;8419;52.358;9.752;2023-05-01T04:10:40;101067.00;;;16.00;30.82
16613;BME280;8419;52.358;9.752;2023-05-01T04:13:25;101064.00;;;16.02;30.84
16613;BME280;8419;52.358;9.752;2023-05-01T04:16:10;101057.00;;;16.04;30.82
16613;BME280;8419;52.358;9.752;2023-05-01T04:18:57;101060.00;;;16.24;30.51
16613;BME280;8419;52.358;9.752;2023-05-01T04:21:42;101054.00;;;16.04;30.83
16613;BME280;8419;52.358;9.752;2023-05-01T04:24:28;101052.00;;;16.17;30.64
16613;BME280;8419;52.358;9.752;2023-05-01T04:27:14;101054.00;;;16.17;30.64
16613;BME280;8419;52.358;9.752;2023-05-01T04:29:59;101055.00;;;16.17;30.65
16613;BME280;8419;52.358;9.752;2023-05-01T04:32:47;101053.00;;;16.17;30.71
16613;BME280;8419;52.358;9.752;2023-05-01T04:35:33;101051.00;;;16.05;30.94
16613;BME280;8419;52.358;9.752;2023-05-01T04:38:19;101060.00;;;16.01;31.04
16613;BME280;8419;52.358;9.752;2023-05-01T04:41:05;101060.00;;;16.04;31.03
16613;BME280;8419;52.358;9.752;2023-05-01T04:43:51;101054.00;;;16.07;31.02
16613;BME280;8419;52.358;9.752;2023-05-01T04:46:37;101053.00;;;16.10;31.03
16613;BME280;8419;52.358;9.752;2023-05-01T04:49:22;101052.00;;;16.18;30.89
16613;BME280;8419;52.358;9.752;2023-05-01T04:52:08;101039.00;;;16.19;30.89
16613;BME280;8419;52.358;9.752;2023-05-01T04:54:55;101051.00;;;16.31;30.79
16613;BME280;8419;52.358;9.752;2023-05-01T04:57:41;101051.00;;;16.18;30.95
16613;BME280;8419;52.358;9.752;2023-05-01T05:00:27;101048.00;;;16.19;30.98
16613;BME280;8419;52.358;9.752;2023-05-01T05:03:13;101049.00;;;16.33;30.82
16613;BME280;8419;52.358;9.752;2023-05-01T05:06:03;101046.00;;;16.37;30.77
16613;BME280;8419;52.358;9.752;2023-05-01T05:08:48;101046.00;;;16.39;30.77
16613;BME280;8419;52.358;9.752;2023-05-01T05:11:36;101042.00;;;16.43;30.72
16613;BME280;8419;52.358;9.752;2023-05-01T05:14:21;101044.00;;;16.53;30.62
16613;BME280;8419;52.358;9.752;2023-05-01T05:17:07;101052.00;;;16.41;30.78
16613;BME280;8419;52.358;9.752;2023-05-01T05:19:53;101043.00;;;16.37;30.94
16613;BME280;8419;52.358;9.752;2023-05-01T05:22:38;101044.00;;;16.41;30.90
16613;BME280;8419;52.358;9.752;2023-05-01T05:25:24;101053.00;;;16.43;30.90
16613;BME280;8419;52.358;9.752;2023-05-01T05:28:10;101051.00;;;16.45;30.91
16613;BME280;8419;52.358;9.752;2023-05-01T05:30:56;101051.00;;;16.66;30.61
16613;BME280;8419;52.358;9.752;2023-05-01T05:33:42;101045.00;;;16.65;30.65
16613;BME280;8419;52.358;9.752;2023-05-01T05:36:31;101049.00;;;16.74;30.52
16613;BME280;8419;52.358;9.752;2023-05-01T05:39:19;101038.00;;;16.80;30.47
16613;BME280;8419;52.358;9.752;2023-05-01T05:42:06;101046.00;;;16.83;30.40
16613;BME280;8419;52.358;9.752;2023-05-01T05:44:51;101041.00;;;16.80;30.50
16613;BME280;8419;52.358;9.752;2023-05-01T05:47:37;101043.00;;;16.82;30.52
16613;BME280;8419;52.358;9.752;2023-05-01T05:50:23;101043.00;;;16.89;30.48
16613;BME280;8419;52.358;9.752;2023-05-01T05:53:10;101039.00;;;17.03;30.32
16613;BME280;8419;52.358;9.752;2023-05-01T05:55:57;101034.00;;;17.09;30.29
16613;BME280;8419;52.358;9.752;2023-05-01T05:58:42;101031.00;;;17.23;30.15
16613;BME280;8419;52.358;9.752;2023-05-01T06:01:30;101035.00;;;17.23;30.18
16613;BME280;8419;52.358;9.752;2023-05-01T06:04:16;101031.00;;;17.24;30.32
16613;BME280;8419;52.358;9.752;2023-05-01T06:07:02;101030.00;;;17.35;30.22
16613;BME280;8419;52.358;9.752;2023-05-01T06:09:48;101023.00;;;17.46;30.11
16613;BME280;8419;52.358;9.752;2023-05-01T06:12:33;101024.00;;;17.57;29.97
16613;BME280;8419;52.358;9.752;2023-05-01T06:15:19;101023.00;;;17.71;29.87
16613;BME280;8419;52.358;9.752;2023-05-01T06:18:05;101022.00;;;17.85;29.72
16613;BME280;8419;52.358;9.752;2023-05-01T06:20:52;101018.00;;;17.95;29.60
16613;BME280;8419;52.358;9.752;2023-05-01T06:23:38;101017.00;;;18.13;29.37
16613;BME280;8419;52.358;9.752;2023-05-01T06:26:25;101018.00;;;18.30;29.17
16613;BME280;8419;52.358;9.752;2023-05-01T06:29:11;101019.00;;;18.31;29.25
16613;BME280;8419;52.358;9.752;2023-05-01T06:31:56;101009.00;;;18.55;29.08
16613;BME280;8419;52.358;9.752;2023-05-01T06:34:44;101013.00;;;18.55;29.56
16613;BME280;8419;52.358;9.752;2023-05-01T06:37:30;101008.00;;;18.72;29.39
16613;BME280;8419;52.358;9.752;2023-05-01T06:40:16;101003.00;;;18.85;29.21
16613;BME280;8419;52.358;9.752;2023-05-01T06:43:02;100999.00;;;18.96;29.18
16613;BME280;8419;52.358;9.752;2023-05-01T06:45:48;100995.00;;;19.09;29.06
16613;BME280;8419;52.358;9.752;2023-05-01T06:48:34;101000.00;;;19.21;28.86
16613;BME280;8419;52.358;9.752;2023-05-01T06:51:19;101001.00;;;19.34;28.61
16613;BME280;8419;52.358;9.752;2023-05-01T06:54:05;100988.00;;;19.39;28.53
16613;BME280;8419;52.358;9.752;2023-05-01T06:56:50;100994.00;;;19.52;28.36
16613;BME280;8419;52.358;9.752;2023-05-01T06:59:36;100986.00;;;19.67;28.11
16613;BME280;8419;52.358;9.752;2023-05-01T07:02:21;100983.00;;;19.75;27.98
16613;BME280;8419;52.358;9.752;2023-05-01T07:05:07;100983.00;;;19.84;27.89
16613;BME280;8419;52.358;9.752;2023-05-01T07:07:53;100984.00;;;19.91;27.75
16613;BME280;8419;52.358;9.752;2023-05-01T07:10:38;100976.00;;;20.03;27.66
16613;BME280;8419;52.358;9.752;2023-05-01T07:13:24;100970.00;;;20.09;27.57
16613;BME280;8419;52.358;9.752;2023-05-01T07:16:10;100974.00;;;20.12;27.50
16613;BME280;8419;52.358;9.752;2023-05-01T07:18:56;100976.00;;;20.22;27.39
16613;BME280;8419;52.358;9.752;2023-05-01T07:21:41;100968.00;;;20.30;27.25
16613;BME280;8419;52.358;9.752;2023-05-01T07:24:27;100970.00;;;20.50;26.99
16613;BME280;8419;52.358;9.752;2023-05-01T07:27:12;100962.00;;;20.53;26.85
16613;BME280;8419;52.358;9.752;2023-05-01T07:30:00;100962.00;;;20.48;26.87
16613;BME280;8419;52.358;9.752;2023-05-01T07:32:45;100967.00;;;20.58;26.65
16613;BME280;8419;52.358;9.752;2023-05-01T07:35:31;100959.00;;;20.60;26.64
16613;BME280;8419;52.358;9.752;2023-05-01T07:38:17;100959.00;;;20.68;26.53
16613;BME280;8419;52.358;9.752;2023-05-01T07:41:02;100952.00;;;20.65;26.54
16613;BME280;8419;52.358;9.752;2023-05-01T07:43:48;100956.00;;;20.78;26.39
16613;BME280;8419;52.358;9.752;2023-05-01T07:46:33;100955.00;;;20.91;26.22
16613;BME280;8419;52.358;9.752;2023-05-01T07:49:20;100959.00;;;21.03;26.03
16613;BME280;8419;52.358;9.752;2023-05-01T07:52:06;100960.00;;;20.92;26.20
16613;BME280;8419;52.358;9.752;2023-05-01T07:54:52;100954.00;;;21.01;26.05
16613;BME280;8419;52.358;9.752;2023-05-01T07:57:37;100957.00;;;21.13;25.97
16613;BME280;8419;52.358;9.752;2023-05-01T08:00:23;100952.00;;;21.27;25.84
16613;BME280;8419;52.358;9.752;2023-05-01T08:03:09;100945.00;;;21.31;25.88
16613;BME280;8419;52.358;9.752;2023-05-01T08:05:55;100937.00;;;21.43;25.82
16613;BME280;8419;52.358;9.752;2023-05-01T08:08:40;100938.00;;;21.53;25.82
16613;BME280;8419;52.358;9.752;2023-05-01T08:11:28;100938.00;;;21.70;25.65
16613;BME280;8419;52.358;9.752;2023-05-01T08:14:13;100943.00;;;21.85;25.54
16613;BME280;8419;52.358;9.752;2023-05-01T08:17:02;100936.00;;;21.93;25.48
16613;BME280;8419;52.358;9.752;2023-05-01T08:19:48;100931.00;;;22.00;25.49
16613;BME280;8419;52.358;9.752;2023-05-01T08:22:34;100923.00;;;22.14;25.42
16613;BME280;8419;52.358;9.752;2023-05-01T08:25:19;100922.00;;;22.10;25.50
16613;BME280;8419;52.358;9.752;2023-05-01T08:28:05;100928.00;;;22.06;25.58
16613;BME280;8419;52.358;9.752;2023-05-01T08:30:50;100932.00;;;22.05;25.59
16613;BME280;8419;52.358;9.752;2023-05-01T08:33:36;100919.00;;;22.04;25.61
16613;BME280;8419;52.358;9.752;2023-05-01T08:36:21;100914.00;;;22.18;25.51
16613;BME280;8419;52.358;9.752;2023-05-01T08:39:07;100916.00;;;22.29;25.36
16613;BME280;8419;52.358;9.752;2023-05-01T08:41:53;100921.00;;;22.18;25.55
16613;BME280;8419;52.358;9.752;2023-05-01T08:44:39;100921.00;;;22.23;25.57
16613;BME280;8419;52.358;9.752;2023-05-01T08:47:27;100913.00;;;22.28;25.44
16613;BME280;8419;52.358;9.752;2023-05-01T08:50:16;100909.00;;;22.45;25.24
16613;BME280;8419;52.358;9.752;2023-05-01T08:53:01;100912.00;;;22.43;25.29
16613;BME280;8419;52.358;9.752;2023-05-01T08:55:48;100907.00;;;22.66;25.14
16613;BME280;8419;52.358;9.752;2023-05-01T08:58:36;100905.00;;;22.74;25.06
16613;BME280;8419;52.358;9.752;2023-05-01T09:01:23;100911.00;;;22.81;25.04
16613;BME280;8419;52.358;9.752;2023-05-01T09:04:10;100895.00;;;22.97;24.91
16613;BME280;8419;52.358;9.752;2023-05-01T09:06:57;100905.00;;;23.23;24.71
16613;BME280;8419;52.358;9.752;2023-05-01T09:09:44;100909.00;;;23.25;24.75
16613;BME280;8419;52.358;9.752;2023-05-01T09:12:30;100893.00;;;23.31;24.72
16613;BME280;8419;52.358;9.752;2023-05-01T09:15:19;100898.00;;;23.41;24.60
16613;BME280;8419;52.358;9.752;2023-05-01T09:18:08;100894.00;;;23.47;24.57
16613;BME280;8419;52.358;9.752;2023-05-01T09:20:53;100894.00;;;23.64;24.39
16613;BME280;8419;52.358;9.752;2023-05-01T09:23:39;100891.00;;;23.72;24.32
16613;BME280;8419;52.358;9.752;2023-05-01T09:26:25;100889.00;;;23.86;24.23
16613;BME280;8419;52.358;9.752;2023-05-01T09:29:10;100882.00;;;24.04;24.12
16613;BME280;8419;52.358;9.752;2023-05-01T09:32:12;100882.00;;;23.96;24.18
16613;BME280;8419;52.358;9.752;2023-05-01T09:35:10;100874.00;;;24.04;24.18
16613;BME280;8419;52.358;9.752;2023-05-01T09:37:56;100871.00;;;24.15;24.15
16613;BME280;8419;52.358;9.752;2023-05-01T09:40:42;100868.00;;;24.36;23.92
16613;BME280;8419;52.358;9.752;2023-05-01T09:43:31;100869.00;;;24.43;23.96
16613;BME280;8419;52.358;9.752;2023-05-01T09:46:18;100867.00;;;24.58;23.92
16613;BME280;8419;52.358;9.752;2023-05-01T09:49:04;100859.00;;;24.76;23.82
16613;BME280;8419;52.358;9.752;2023-05-01T09:51:49;100859.00;;;24.95;23.65
16613;BME280;8419;52.358;9.752;2023-05-01T09:54:35;100847.00;;;25.03;23.59
16613;BME280;8419;52.358;9.752;2023-05-01T09:57:34;100856.00;;;25.26;23.40
16613;BME280;8419;52.358;9.752;2023-05-01T10:00:22;100848.00;;;25.44;23.34
16613;BME280;8419;52.358;9.752;2023-05-01T10:03:12;100855.00;;;25.51;23.24
16613;BME280;8419;52.358;9.752;2023-05-01T10:05:59;100849.00;;;25.37;23.47
16613;BME280;8419;52.358;9.752;2023-05-01T10:08:48;100846.00;;;25.38;23.47
16613;BME280;8419;52.358;9.752;2023-05-01T10:11:49;100851.00;;;25.52;23.42
16613;BME280;8419;52.358;9.752;2023-05-01T10:14:50;100851.00;;;25.91;23.07
16613;BME280;8419;52.358;9.752;2023-05-01T10:17:35;100852.00;;;26.09;22.86
16613;BME280;8419;52.358;9.752;2023-05-01T10:20:24;100851.00;;;26.01;22.83
16613;BME280;8419;52.358;9.752;2023-05-01T10:23:09;100838.00;;;26.03;22.79
16613;BME280;8419;52.358;9.752;2023-05-01T10:25:56;100849.00;;;26.03;22.74
16613;BME280;8419;52.358;9.752;2023-05-01T10:28:45;100832.00;;;26.15;22.54
16613;BME280;8419;52.358;9.752;2023-05-01T10:31:32;100836.00;;;26.24;22.45
16613;BME280;8419;52.358;9.752;2023-05-01T10:34:20;100832.00;;;26.45;22.36
16613;BME280;8419;52.358;9.752;2023-05-01T10:37:12;100824.00;;;26.79;22.12
16613;BME280;8419;52.358;9.752;2023-05-01T10:39:58;100821.00;;;27.02;21.95
16613;BME280;8419;52.358;9.752;2023-05-01T10:43:12;100823.00;;;27.30;21.71
16613;BME280;8419;52.358;9.752;2023-05-01T10:46:25;100819.00;;;27.62;21.53
16613;BME280;8419;52.358;9.752;2023-05-01T10:49:11;100803.00;;;27.64;21.62
16613;BME280;8419;52.358;9.752;2023-05-01T10:52:01;100811.00;;;27.65;21.43
16613;BME280;8419;52.358;9.752;2023-05-01T10:54:48;100798.00;;;27.35;21.68
16613;BME280;8419;52.358;9.752;2023-05-01T10:57:43;100797.00;;;27.51;21.54
16613;BME280;8419;52.358;9.752;2023-05-01T11:00:28;100794.00;;;27.39;21.65
16613;BME280;8419;52.358;9.752;2023-05-01T11:03:35;100786.00;;;27.44;21.60
16613;BME280;8419;52.358;9.752;2023-05-01T11:06:23;100789.00;;;27.73;21.43
16613;BME280;8419;52.358;9.752;2023-05-01T11:09:35;100790.00;;;27.92;21.28
16613;BME280;8419;52.358;9.752;2023-05-01T11:12:49;100784.00;;;28.20;21.03
16613;BME280;8419;52.358;9.752;2023-05-01T11:15:37;100777.00;;;28.28;20.90
16613;BME280;8419;52.358;9.752;2023-05-01T11:18:44;100779.00;;;28.38;20.85
16613;BME280;8419;52.358;9.752;2023-05-01T11:21:31;100772.00;;;28.45;20.89
16613;BME280;8419;52.358;9.752;2023-05-01T11:24:18;100776.00;;;28.57;20.84
16613;BME280;8419;52.358;9.752;2023-05-01T11:27:04;100770.00;;;28.78;20.77
16613;BME280;8419;52.358;9.752;2023-05-01T11:29:50;100772.00;;;28.91;20.73
16613;BME280;8419;52.358;9.752;2023-05-01T11:32:42;100768.00;;;29.16;20.61
16613;BME280;8419;52.358;9.752;2023-05-01T11:35:28;100758.00;;;29.41;20.42
16613;BME280;8419;52.358;9.752;2023-05-01T11:38:17;100766.00;;;29.71;20.20
16613;BME280;8419;52.358;9.752;2023-05-01T11:41:03;100765.00;;;30.03;19.89
16613;BME280;8419;52.358;9.752;2023-05-01T11:43:50;100767.00;;;30.30;19.65
16613;BME280;8419;52.358;9.752;2023-05-01T11:46:36;100751.00;;;30.50;19.50
16613;BME280;8419;52.358;9.752;2023-05-01T11:49:26;100753.00;;;30.79;19.32
16613;BME280;8419;52.358;9.752;2023-05-01T11:52:12;100747.00;;;31.09;19.12
16613;BME280;8419;52.358;9.752;2023-05-01T11:54:57;100738.00;;;31.44;18.91
16613;BME280;8419;52.358;9.752;2023-05-01T11:57:47;100742.00;;;31.83;18.58
16613;BME280;8419;52.358;9.752;2023-05-01T12:00:34;100739.00;;;32.15;18.25
16613;BME280;8419;52.358;9.752;2023-05-01T12:03:21;100741.00;;;32.36;17.93
16613;BME280;8419;52.358;9.752;2023-05-01T12:06:08;100735.00;;;32.20;17.76
16613;BME280;8419;52.358;9.752;2023-05-01T12:08:54;100738.00;;;32.02;17.83
16613;BME280;8419;52.358;9.752;2023-05-01T12:11:40;100733.00;;;31.91;17.84
16613;BME280;8419;52.358;9.752;2023-05-01T12:14:27;100735.00;;;31.96;17.90
16613;BME280;8419;52.358;9.752;2023-05-01T12:17:13;100733.00;;;32.07;17.75
16613;BME280;8419;52.358;9.752;2023-05-01T12:19:58;100735.00;;;32.02;17.74
16613;BME280;8419;52.358;9.752;2023-05-01T12:22:50;100741.00;;;32.16;17.72
16613;BME280;8419;52.358;9.752;2023-05-01T12:25:38;100732.00;;;32.37;17.50
16613;BME280;8419;52.358;9.752;2023-05-01T12:28:25;100727.00;;;32.34;17.37
16613;BME280;8419;52.358;9.752;2023-05-01T12:31:11;100723.00;;;32.41;17.37
16613;BME280;8419;52.358;9.752;2023-05-01T12:33:59;100729.00;;;32.74;17.21
16613;BME280;8419;52.358;9.752;2023-05-01T12:36:52;100719.00;;;33.05;16.99
16613;BME280;8419;52.358;9.752;2023-05-01T12:39:39;100719.00;;;33.38;16.76
16613;BME280;8419;52.358;9.752;2023-05-01T12:42:26;100714.00;;;33.38;16.74
16613;BME280;8419;52.358;9.752;2023-05-01T12:45:12;100716.00;;;33.03;16.71
16613;BME280;8419;52.358;9.752;2023-05-01T12:47:59;100718.00;;;32.97;16.81
16613;BME280;8419;52.358;9.752;2023-05-01T12:50:45;100710.00;;;32.96;16.67
16613;BME280;8419;52.358;9.752;2023-05-01T12:53:30;100702.00;;;33.16;16.59
16613;BME280;8419;52.358;9.752;2023-05-01T12:56:23;100712.00;;;33.23;16.56
16613;BME280;8419;52.358;9.752;2023-05-01T12:59:20;100701.00;;;33.28;16.44
16613;BME280;8419;52.358;9.752;2023-05-01T13:02:07;100699.00;;;33.37;16.23
16613;BME280;8419;52.358;9.752;2023-05-01T13:05:05;100702.00;;;32.91;16.44
16613;BME280;8419;52.358;9.752;2023-05-01T13:07:51;100695.00;;;32.94;16.40
16613;BME280;8419;52.358;9.752;2023-05-01T13:10:37;100691.00;;;32.88;16.32
16613;BME280;8419;52.358;9.752;2023-05-01T13:13:28;100688.00;;;32.93;16.41
16613;BME280;8419;52.358;9.752;2023-05-01T13:16:16;100690.00;;;33.17;16.21
16613;BME280;8419;52.358;9.752;2023-05-01T13:19:01;100692.00;;;33.05;16.18
16613;BME280;8419;52.358;9.752;2023-05-01T13:21:49;100676.00;;;33.00;16.07
16613;BME280;8419;52.358;9.752;2023-05-01T13:24:37;100679.00;;;33.25;16.06
16613;BME280;8419;52.358;9.752;2023-05-01T13:27:23;100677.00;;;33.32;15.99
16613;BME280;8419;52.358;9.752;2023-05-01T13:30:10;100677.00;;;33.11;16.09
16613;BME280;8419;52.358;9.752;2023-05-01T13:32:56;100677.00;;;32.97;16.07
16613;BME280;8419;52.358;9.752;2023-05-01T13:35:42;100675.00;;;33.01;16.11
16613;BME280;8419;52.358;9.752;2023-05-01T13:38:27;100679.00;;;32.71;16.29
16613;BME280;8419;52.358;9.752;2023-05-01T13:41:15;100680.00;;;32.28;16.60
16613;BME280;8419;52.358;9.752;2023-05-01T13:44:02;100677.00;;;32.33;16.56
16613;BME280;8419;52.358;9.752;2023-05-01T13:46:50;100681.00;;;32.54;16.47
16613;BME280;8419;52.358;9.752;2023-05-01T13:49:40;100674.00;;;32.61;16.26
16613;BME280;8419;52.358;9.752;2023-05-01T13:52:26;100681.00;;;32.78;16.25
16613;BME280;8419;52.358;9.752;2023-05-01T13:55:13;100667.00;;;33.26;15.91
16613;BME280;8419;52.358;9.752;2023-05-01T13:58:00;100673.00;;;33.99;15.50
16613;BME280;8419;52.358;9.752;2023-05-01T14:00:46;100654.00;;;34.98;14.85
16613;BME280;8419;52.358;9.752;2023-05-01T14:03:38;100664.00;;;36.31;14.06
16613;BME280;8419;52.358;9.752;2023-05-01T14:06:24;100673.00;;;37.76;13.22
16613;BME280;8419;52.358;9.752;2023-05-01T14:09:10;100666.00;;;38.29;12.93
16613;BME280;8419;52.358;9.752;2023-05-01T14:11:56;100666.00;;;38.79;12.47
16613;BME280;8419;52.358;9.752;2023-05-01T14:14:46;100649.00;;;39.16;12.30
16613;BME280;8419;52.358;9.752;2023-05-01T14:17:33;100658.00;;;39.32;12.09
16613;BME280;8419;52.358;9.752;2023-05-01T14:20:19;100655.00;;;39.60;11.95
16613;BME280;8419;52.358;9.752;2023-05-01T14:23:06;100650.00;;;38.66;12.17
16613;BME280;8419;52.358;9.752;2023-05-01T14:25:52;100642.00;;;38.28;11.97
16613;BME280;8419;52.358;9.752;2023-05-01T14:28:41;100650.00;;;37.35;12.21
16613;BME280;8419;52.358;9.752;2023-05-01T14:31:28;100643.00;;;36.74;12.32
16613;BME280;8419;52.358;9.752;2023-05-01T14:34:16;100631.00;;;36.05;12.58
16613;BME280;8419;52.358;9.752;2023-05-01T14:37:02;100642.00;;;35.60;12.88
16613;BME280;8419;52.358;9.752;2023-05-01T14:39:48;100638.00;;;35.24;13.12
16613;BME280;8419;52.358;9.752;2023-05-01T14:42:34;100629.00;;;35.73;13.00
16613;BME280;8419;52.358;9.752;2023-05-01T14:45:20;100634.00;;;36.62;12.35
16613;BME280;8419;52.358;9.752;2023-05-01T14:48:06;100641.00;;;36.87;12.11
16613;BME280;8419;52.358;9.752;2023-05-01T14:50:51;100637.00;;;36.91;12.02
16613;BME280;8419;52.358;9.752;2023-05-01T14:53:39;100644.00;;;36.75;12.23
16613;BME280;8419;52.358;9.752;2023-05-01T14:56:26;100635.00;;;37.08;12.15
16613;BME280;8419;52.358;9.752;2023-05-01T14:59:12;100639.00;;;37.66;11.78